createdAt,value
2023-10-10T00:00:57.008Z,2.70
2023-10-10T00:03:33.969Z,2.80
2023-10-10T00:06:09.854Z,2.70
2023-10-10T00:08:42.600Z,3.10
2023-10-10T00:11:20.421Z,2.70
2023-10-10T00:13:54.317Z,2.90
2023-10-10T00:16:27.682Z,2.90
2023-10-10T00:18:57.350Z,2.80
2023-10-10T00:23:56.557Z,2.90
2023-10-10T00:26:27.326Z,3.20
2023-10-10T00:28:56.041Z,3.10
2023-10-10T00:31:28.484Z,2.90
2023-10-10T00:33:57.469Z,3.20
2023-10-10T00:36:31.756Z,2.90
2023-10-10T00:39:09.189Z,2.90
2023-10-10T00:42:05.337Z,3.30
2023-10-10T00:44:38.697Z,2.50
2023-10-10T00:47:27.576Z,2.60
2023-10-10T00:49:56.816Z,3.00
2023-10-10T00:52:25.526Z,3.00
2023-10-10T00:54:54.296Z,2.10
2023-10-10T00:57:22.920Z,2.30
2023-10-10T00:59:56.117Z,2.60
2023-10-10T01:02:25.198Z,2.40
2023-10-10T01:04:58.808Z,2.50
2023-10-10T01:07:28.096Z,2.70
2023-10-10T01:10:01.119Z,2.70
2023-10-10T01:12:37.341Z,2.60
2023-10-10T01:15:15.572Z,2.40
2023-10-10T01:17:46.499Z,2.80
2023-10-10T01:20:20.905Z,2.40
2023-10-10T01:22:50.225Z,2.30
2023-10-10T01:25:35.716Z,2.40
2023-10-10T01:28:15.521Z,2.50
2023-10-10T01:33:36.936Z,2.60
2023-10-10T01:36:22.128Z,3.00
2023-10-10T01:39:04.324Z,3.10
2023-10-10T01:41:33.420Z,3.60
2023-10-10T01:44:14.887Z,3.90
2023-10-10T01:46:43.725Z,3.70
2023-10-10T01:49:21.696Z,3.20
2023-10-10T01:52:00.851Z,3.00
2023-10-10T01:54:47.305Z,2.80
2023-10-10T01:57:25.632Z,3.20
2023-10-10T01:59:54.681Z,3.10
2023-10-10T02:02:26.087Z,2.90
2023-10-10T02:05:00.895Z,3.20
2023-10-10T02:07:33.656Z,3.40
2023-10-10T02:10:14.930Z,3.10
2023-10-10T02:12:47.749Z,3.00
2023-10-10T02:15:20.566Z,3.00
2023-10-10T02:17:58.250Z,2.80
2023-10-10T02:20:26.860Z,2.50
2023-10-10T02:23:02.563Z,3.00
2023-10-10T02:25:37.115Z,2.40
2023-10-10T02:28:21.962Z,3.40
2023-10-10T02:30:54.154Z,2.80
2023-10-10T02:33:25.522Z,2.60
2023-10-10T02:35:58.261Z,2.90
2023-10-10T02:38:38.527Z,3.30
2023-10-10T02:41:22.962Z,3.10
2023-10-10T02:44:11.284Z,2.90
2023-10-10T02:46:42.546Z,2.90
2023-10-10T02:49:31.294Z,2.70
2023-10-10T02:52:08.105Z,2.80
2023-10-10T02:54:44.940Z,3.30
2023-10-10T02:57:25.737Z,3.50
2023-10-10T03:00:30.261Z,3.20
2023-10-10T03:03:00.635Z,3.60
2023-10-10T03:05:44.907Z,3.00
2023-10-10T03:08:28.183Z,2.60
2023-10-10T03:10:56.769Z,3.20
2023-10-10T03:13:49.602Z,3.30
2023-10-10T03:16:24.151Z,3.00
2023-10-10T03:21:45.246Z,3.20
2023-10-10T03:24:24.781Z,3.00
2023-10-10T03:26:54.175Z,3.00
2023-10-10T03:29:28.237Z,3.00
2023-10-10T03:32:17.352Z,3.10
2023-10-10T03:34:46.466Z,2.80
2023-10-10T03:37:27.384Z,3.10
2023-10-10T03:39:59.459Z,3.20
2023-10-10T03:42:47.229Z,3.30
2023-10-10T03:45:34.301Z,2.90
2023-10-10T03:48:21.544Z,2.90
2023-10-10T03:51:08.418Z,3.20
2023-10-10T03:53:55.295Z,2.50
2023-10-10T03:56:42.334Z,2.80
2023-10-10T03:59:29.452Z,2.80
2023-10-10T04:02:57.032Z,3.00
2023-10-10T04:05:44.103Z,3.00
2023-10-10T04:08:59.725Z,3.20
2023-10-10T04:11:46.889Z,3.20
2023-10-10T04:14:33.678Z,3.40
2023-10-10T04:17:20.532Z,3.20
2023-10-10T04:20:08.107Z,3.20
2023-10-10T04:22:55.147Z,3.80
2023-10-10T04:25:42.168Z,3.00
2023-10-10T04:28:29.559Z,4.20
2023-10-10T04:31:16.907Z,3.90
2023-10-10T04:34:04.155Z,4.10
2023-10-10T04:36:51.243Z,3.50
2023-10-10T04:39:38.258Z,4.40
2023-10-10T04:42:25.245Z,3.70
2023-10-10T04:45:12.126Z,3.50
2023-10-10T04:47:59.661Z,3.90
2023-10-10T04:50:50.706Z,4.00
2023-10-10T04:53:39.600Z,4.00
2023-10-10T04:59:14.770Z,3.50
2023-10-10T05:02:02.247Z,3.80
2023-10-10T05:05:11.773Z,4.10
2023-10-10T05:08:20.444Z,5.70
2023-10-10T05:11:08.456Z,5.30
2023-10-10T05:13:57.281Z,6.40
2023-10-10T05:16:44.533Z,5.20
2023-10-10T05:19:37.095Z,5.60
2023-10-10T05:22:24.276Z,5.60
2023-10-10T05:24:56.597Z,5.70
2023-10-10T05:27:31.536Z,4.80
2023-10-10T05:30:01.983Z,5.70
2023-10-10T05:32:33.989Z,5.50
2023-10-10T05:35:12.874Z,6.40
2023-10-10T05:37:42.148Z,4.90
2023-10-10T05:40:10.923Z,4.30
2023-10-10T05:42:40.595Z,4.40
2023-10-10T05:45:15.586Z,4.30
2023-10-10T05:47:44.516Z,4.60
2023-10-10T05:50:13.299Z,3.60
2023-10-10T05:52:42.442Z,4.20
2023-10-10T05:58:24.584Z,4.80
2023-10-10T06:00:57.428Z,5.00
2023-10-10T06:03:27.368Z,4.00
2023-10-10T06:05:58.345Z,4.40
2023-10-10T06:08:27.135Z,4.10
2023-10-10T06:10:58.140Z,4.10
2023-10-10T06:13:27.143Z,4.40
2023-10-10T06:15:55.690Z,4.20
2023-10-10T06:18:24.897Z,4.20
2023-10-10T06:23:37.257Z,4.50
2023-10-10T06:26:08.593Z,4.90
2023-10-10T06:28:37.744Z,4.80
2023-10-10T06:31:22.781Z,5.00
2023-10-10T06:33:52.162Z,5.40
2023-10-10T06:36:26.481Z,5.60
2023-10-10T06:39:06.788Z,5.40
2023-10-10T06:41:42.119Z,5.10
2023-10-10T06:44:19.181Z,4.80
2023-10-10T06:46:50.261Z,5.80
2023-10-10T06:49:22.850Z,6.70
2023-10-10T06:51:51.640Z,5.80
2023-10-10T06:54:29.482Z,5.00
2023-10-10T06:57:00.405Z,3.60
2023-10-10T06:59:30.492Z,3.70
2023-10-10T07:02:15.375Z,4.10
2023-10-10T07:04:44.284Z,4.50
2023-10-10T07:07:15.096Z,4.20
2023-10-10T07:09:43.905Z,4.00
2023-10-10T07:12:15.454Z,4.10
2023-10-10T07:14:48.682Z,3.90
2023-10-10T07:17:23.795Z,4.00
2023-10-10T07:20:02.473Z,4.30
2023-10-10T07:22:36.144Z,3.80
2023-10-10T07:25:28.076Z,4.50
2023-10-10T07:27:58.381Z,4.40
2023-10-10T07:30:35.972Z,4.30
2023-10-10T07:33:06.399Z,5.10
2023-10-10T07:35:37.987Z,4.30
2023-10-10T07:38:07.345Z,4.50
2023-10-10T07:40:39.953Z,4.00
2023-10-10T07:43:09.144Z,3.90
2023-10-10T07:45:43.510Z,3.80
2023-10-10T07:48:23.158Z,3.60
2023-10-10T07:53:36.025Z,4.70
2023-10-10T07:56:04.851Z,4.20
2023-10-10T07:58:53.436Z,5.10
2023-10-10T08:01:22.839Z,9.50
2023-10-10T08:03:52.822Z,4.30
2023-10-10T08:06:24.941Z,2.90
2023-10-10T08:09:14.549Z,7.00
2023-10-10T08:14:33.829Z,3.90
2023-10-10T08:17:05.950Z,3.40
2023-10-10T08:19:35.212Z,3.80
2023-10-10T08:22:14.152Z,3.30
2023-10-10T08:24:45.336Z,3.50
2023-10-10T08:27:14.189Z,4.10
2023-10-10T08:29:51.217Z,2.80
2023-10-10T08:32:20.359Z,3.50
2023-10-10T08:35:01.357Z,3.90
2023-10-10T08:37:45.922Z,3.80
2023-10-10T08:40:23.532Z,3.40
2023-10-10T08:42:52.258Z,3.90
2023-10-10T08:45:25.156Z,4.10
2023-10-10T08:48:03.545Z,3.30
2023-10-10T08:50:35.973Z,2.70
2023-10-10T08:53:08.014Z,3.40
2023-10-10T08:55:40.408Z,2.80
2023-10-10T08:58:10.356Z,3.50
2023-10-10T09:00:39.442Z,2.70
2023-10-10T09:03:10.720Z,2.80
2023-10-10T09:05:42.118Z,3.50
2023-10-10T09:08:20.265Z,2.80
2023-10-10T09:10:54.705Z,2.40
2023-10-10T09:13:27.361Z,2.70
2023-10-10T09:16:12.370Z,3.40
2023-10-10T09:18:43.965Z,3.50
2023-10-10T09:21:20.344Z,3.10
2023-10-10T09:24:09.657Z,2.40
2023-10-10T09:26:44.308Z,2.50
2023-10-10T09:29:30.386Z,2.80
2023-10-10T09:32:03.605Z,2.80
2023-10-10T09:34:44.936Z,2.60
2023-10-10T09:37:28.966Z,2.10
2023-10-10T09:39:58.382Z,2.20
2023-10-10T09:42:53.709Z,3.00
2023-10-10T09:45:54.775Z,1.80
2023-10-10T09:48:51.410Z,1.90
2023-10-10T09:51:41.564Z,1.90
2023-10-10T09:54:17.829Z,2.20
2023-10-10T09:56:59.133Z,1.90
2023-10-10T09:59:30.297Z,2.00
2023-10-10T10:02:04.372Z,2.70
2023-10-10T10:04:43.772Z,2.10
2023-10-10T10:07:37.362Z,2.20
2023-10-10T10:10:11.012Z,1.70
2023-10-10T10:13:16.156Z,2.20
2023-10-10T10:16:14.179Z,2.30
2023-10-10T10:18:53.792Z,1.80
2023-10-10T10:21:33.417Z,2.30
2023-10-10T10:24:18.961Z,3.40
2023-10-10T10:27:30.247Z,2.40
2023-10-10T10:30:20.639Z,2.20
2023-10-10T10:32:56.692Z,2.00
2023-10-10T10:35:49.871Z,2.10
2023-10-10T10:38:24.963Z,2.70
2023-10-10T10:41:08.852Z,2.60
2023-10-10T10:43:42.876Z,2.60
2023-10-10T10:46:16.476Z,2.20
2023-10-10T10:48:49.499Z,2.40
2023-10-10T10:51:29.713Z,2.30
2023-10-10T10:54:00.541Z,2.70
2023-10-10T10:56:30.989Z,2.80
2023-10-10T10:59:14.795Z,2.80
2023-10-10T11:02:00.257Z,3.50
2023-10-10T11:04:33.587Z,2.90
2023-10-10T11:07:09.815Z,3.10
2023-10-10T11:09:44.321Z,2.20
2023-10-10T11:12:15.773Z,2.40
2023-10-10T11:14:55.141Z,2.40
2023-10-10T11:17:25.975Z,3.10
2023-10-10T11:19:55.973Z,2.90
2023-10-10T11:22:44.342Z,3.50
2023-10-10T11:25:29.672Z,3.30
2023-10-10T11:28:05.168Z,3.60
2023-10-10T11:30:35.408Z,3.00
2023-10-10T11:33:20.947Z,3.20
2023-10-10T11:36:02.813Z,3.20
2023-10-10T11:38:38.186Z,3.90
2023-10-10T11:41:10.627Z,3.20
2023-10-10T11:44:01.493Z,3.70
2023-10-10T11:46:31.520Z,3.50
2023-10-10T11:49:01.492Z,3.40
2023-10-10T11:51:39.621Z,3.20
2023-10-10T11:54:14.042Z,4.20
2023-10-10T11:56:43.301Z,3.90
2023-10-10T11:59:12.296Z,4.00
2023-10-10T12:01:51.397Z,4.70
2023-10-10T12:04:32.935Z,4.50
2023-10-10T12:07:06.486Z,4.40
2023-10-10T12:09:35.848Z,4.20
2023-10-10T12:12:07.679Z,3.90
2023-10-10T12:14:36.723Z,3.90
2023-10-10T12:17:09.032Z,4.00
2023-10-10T12:19:45.369Z,3.80
2023-10-10T12:22:14.424Z,3.80
2023-10-10T12:24:43.079Z,4.00
2023-10-10T12:27:11.903Z,4.00
2023-10-10T12:29:43.438Z,4.30
2023-10-10T12:32:23.889Z,4.00
2023-10-10T12:34:52.649Z,4.40
2023-10-10T12:37:24.794Z,4.10
2023-10-10T12:39:53.844Z,4.20
2023-10-10T12:42:22.608Z,4.30
2023-10-10T12:44:51.295Z,4.00
2023-10-10T12:47:28.176Z,4.10
2023-10-10T12:50:01.960Z,4.10
2023-10-10T12:52:37.009Z,4.20
2023-10-10T12:55:11.350Z,4.20
2023-10-10T12:57:40.579Z,4.10
2023-10-10T13:00:24.961Z,4.20
2023-10-10T13:02:55.307Z,4.00
2023-10-10T13:05:30.474Z,4.20
2023-10-10T13:08:07.792Z,6.00
2023-10-10T13:10:39.008Z,3.90
2023-10-10T13:13:11.011Z,4.20
2023-10-10T13:15:50.678Z,4.10
2023-10-10T13:21:02.660Z,3.50
2023-10-10T13:23:32.037Z,3.20
2023-10-10T13:26:00.609Z,3.20
2023-10-10T13:28:29.305Z,3.40
2023-10-10T13:30:59.528Z,3.10
2023-10-10T13:33:28.194Z,2.90
2023-10-10T13:35:56.827Z,2.80
2023-10-10T13:38:26.628Z,2.80
2023-10-10T13:40:55.374Z,3.60
2023-10-10T13:43:23.924Z,3.00
2023-10-10T13:45:52.747Z,3.40
2023-10-10T13:48:24.824Z,3.40
2023-10-10T13:50:55.688Z,3.40
2023-10-10T13:53:24.475Z,3.20
2023-10-10T13:55:52.989Z,3.10
2023-10-10T13:58:21.552Z,3.50
2023-10-10T14:00:57.427Z,3.00
2023-10-10T14:03:36.934Z,3.60
2023-10-10T14:06:05.840Z,3.60
2023-10-10T14:08:34.706Z,3.50
2023-10-10T14:11:03.438Z,3.20
2023-10-10T14:13:32.075Z,3.50
2023-10-10T14:16:02.656Z,3.40
2023-10-10T14:18:43.550Z,3.30
2023-10-10T14:21:13.084Z,3.70
2023-10-10T14:23:42.540Z,3.10
2023-10-10T14:28:54.021Z,3.30
2023-10-10T14:31:25.379Z,4.50
2023-10-10T14:33:56.127Z,3.60
2023-10-10T14:36:24.941Z,3.70
2023-10-10T14:38:54.105Z,3.60
2023-10-10T14:41:24.156Z,3.50
2023-10-10T14:43:56.012Z,3.40
2023-10-10T14:46:34.346Z,3.20
2023-10-10T14:49:18.562Z,3.40
2023-10-10T14:51:49.989Z,3.90
2023-10-10T14:54:21.420Z,3.70
2023-10-10T14:56:53.944Z,4.40
2023-10-10T14:59:33.121Z,3.90
2023-10-10T15:02:02.357Z,3.40
2023-10-10T15:04:31.301Z,4.20
2023-10-10T15:07:00.687Z,3.70
2023-10-10T15:09:36.866Z,3.60
2023-10-10T15:12:08.458Z,4.00
2023-10-10T15:14:37.051Z,3.80
2023-10-10T15:17:06.468Z,3.20
2023-10-10T15:19:35.194Z,3.30
2023-10-10T15:22:04.157Z,3.40
2023-10-10T15:24:40.352Z,4.00
2023-10-10T15:27:12.123Z,3.30
2023-10-10T15:29:44.475Z,3.00
2023-10-10T15:32:16.469Z,3.10
2023-10-10T15:34:46.049Z,3.60
2023-10-10T15:39:45.770Z,3.50
2023-10-10T15:42:14.298Z,3.50
2023-10-10T15:44:46.054Z,3.40
2023-10-10T15:47:15.691Z,3.80
2023-10-10T15:49:44.241Z,3.90
2023-10-10T15:52:12.796Z,3.70
2023-10-10T15:54:41.413Z,3.70
2023-10-10T15:57:10.832Z,3.40
2023-10-10T16:02:15.392Z,4.30
2023-10-10T16:04:46.346Z,3.60
2023-10-10T16:07:18.079Z,3.70
2023-10-10T16:09:46.998Z,4.00
2023-10-10T16:12:15.870Z,3.80
2023-10-10T16:14:44.502Z,4.60
2023-10-10T16:17:17.636Z,4.10
2023-10-10T16:19:47.304Z,3.70
2023-10-10T16:22:16.307Z,3.90
2023-10-10T16:24:46.091Z,3.70
2023-10-10T16:29:43.933Z,4.00
2023-10-10T16:32:19.843Z,4.10
2023-10-10T16:34:48.895Z,4.20
2023-10-10T16:37:20.011Z,4.00
2023-10-10T16:39:50.111Z,4.30
2023-10-10T16:42:20.987Z,4.50
2023-10-10T16:44:54.597Z,4.50
2023-10-10T16:47:23.728Z,4.70
2023-10-10T16:49:52.662Z,4.70
2023-10-10T16:52:21.653Z,5.10
2023-10-10T16:54:53.401Z,5.20
2023-10-10T16:57:25.759Z,4.60
2023-10-10T16:59:57.978Z,4.80
2023-10-10T17:02:30.020Z,5.10
2023-10-10T17:05:02.532Z,4.80
2023-10-10T17:07:31.302Z,4.60
2023-10-10T17:10:06.438Z,5.00
2023-10-10T17:12:35.290Z,4.70
2023-10-10T17:15:06.226Z,5.00
2023-10-10T17:17:37.169Z,4.30
2023-10-10T17:20:06.929Z,4.60
2023-10-10T17:22:37.364Z,4.70
2023-10-10T17:25:09.897Z,4.70
2023-10-10T17:27:39.122Z,4.70
2023-10-10T17:30:15.566Z,4.90
2023-10-10T17:32:45.183Z,5.00
2023-10-10T17:37:42.952Z,4.10
2023-10-10T17:40:14.687Z,4.40
2023-10-10T17:42:47.639Z,4.30
2023-10-10T17:45:16.313Z,4.70
2023-10-10T17:47:45.009Z,4.70
2023-10-10T17:50:16.700Z,4.70
2023-10-10T17:52:45.745Z,4.40
2023-10-10T17:55:14.576Z,4.40
2023-10-10T17:57:43.494Z,4.80
2023-10-10T18:00:15.755Z,4.10
2023-10-10T18:02:47.566Z,3.90
2023-10-10T18:05:16.396Z,4.10
2023-10-10T18:07:45.506Z,3.70
2023-10-10T18:10:14.588Z,4.20
2023-10-10T18:12:43.863Z,4.00
2023-10-10T18:15:12.902Z,4.50
2023-10-10T18:17:41.510Z,4.90
2023-10-10T18:20:16.306Z,4.20
2023-10-10T18:22:46.816Z,4.20
2023-10-10T18:25:15.561Z,4.40
2023-10-10T18:27:46.286Z,4.20
2023-10-10T18:30:20.858Z,4.70
2023-10-10T18:32:52.857Z,4.20
2023-10-10T18:35:21.470Z,4.10
2023-10-10T18:37:50.168Z,4.00
2023-10-10T18:40:19.611Z,3.50
2023-10-10T18:45:19.956Z,3.80
2023-10-10T18:47:49.045Z,3.70
2023-10-10T18:50:22.173Z,3.60
2023-10-10T18:52:53.108Z,4.10
2023-10-10T18:55:26.647Z,4.50
2023-10-10T18:58:01.650Z,4.60
2023-10-10T19:00:36.122Z,5.50
2023-10-10T19:03:08.739Z,6.90
2023-10-10T19:05:37.825Z,6.00
2023-10-10T19:08:07.347Z,6.90
2023-10-10T19:13:06.192Z,6.20
2023-10-10T19:15:41.959Z,6.10
2023-10-10T19:18:12.027Z,5.70
2023-10-10T19:20:41.222Z,6.60
2023-10-10T19:23:10.731Z,5.50
2023-10-10T19:25:57.407Z,6.00
2023-10-10T19:28:26.020Z,5.60
2023-10-10T19:30:54.558Z,5.60
2023-10-10T19:33:23.702Z,5.10
2023-10-10T19:35:52.397Z,5.80
2023-10-10T19:38:27.127Z,5.90
2023-10-10T19:40:57.109Z,6.40
2023-10-10T19:43:26.686Z,6.80
2023-10-10T19:45:56.448Z,6.20
2023-10-10T19:50:58.393Z,7.90
2023-10-10T19:55:58.649Z,6.50
2023-10-10T19:58:27.221Z,7.30
2023-10-10T20:00:55.783Z,6.90
2023-10-10T20:03:29.259Z,6.40
2023-10-10T20:05:59.017Z,6.90
2023-10-10T20:08:27.704Z,6.70
2023-10-10T20:10:57.910Z,6.60
2023-10-10T20:13:27.942Z,6.40
2023-10-10T20:15:56.410Z,6.80
2023-10-10T20:18:26.452Z,6.30
2023-10-10T20:20:55.198Z,9.20
2023-10-10T20:23:23.811Z,11.20
2023-10-10T20:25:52.626Z,10.30
2023-10-10T20:28:21.297Z,10.20
2023-10-10T20:30:49.978Z,11.00
2023-10-10T20:33:19.888Z,11.70
2023-10-10T20:35:48.610Z,11.50
2023-10-10T20:38:21.013Z,12.40
2023-10-10T20:40:49.745Z,13.00
2023-10-10T20:43:18.313Z,12.70
2023-10-10T20:45:46.851Z,11.50
2023-10-10T20:48:23.284Z,11.30
2023-10-10T20:50:52.106Z,11.60
2023-10-10T20:53:29.402Z,11.70
2023-10-10T20:55:58.073Z,11.70
2023-10-10T20:58:26.729Z,11.80
2023-10-10T21:00:56.586Z,11.60
2023-10-10T21:03:25.260Z,10.90
2023-10-10T21:05:53.967Z,10.80
2023-10-10T21:08:22.549Z,12.10
2023-10-10T21:10:51.855Z,12.00
2023-10-10T21:13:20.511Z,10.60
2023-10-10T21:15:50.727Z,10.90
2023-10-10T21:18:22.713Z,10.50
2023-10-10T21:21:02.842Z,10.30
2023-10-10T21:23:32.961Z,10.10
2023-10-10T21:26:04.459Z,8.90
2023-10-10T21:28:33.062Z,9.60
2023-10-10T21:31:09.531Z,8.90
2023-10-10T21:33:42.072Z,8.70
2023-10-10T21:36:14.643Z,10.20
2023-10-10T21:38:43.695Z,10.40
2023-10-10T21:41:13.058Z,10.40
2023-10-10T21:46:10.410Z,10.00
2023-10-10T21:48:41.184Z,9.20
2023-10-10T21:51:09.855Z,9.30
2023-10-10T21:53:38.526Z,9.70
2023-10-10T21:56:08.286Z,9.50
2023-10-10T21:58:40.639Z,9.30
2023-10-10T22:01:12.616Z,8.80
2023-10-10T22:03:46.028Z,8.40
2023-10-10T22:06:15.101Z,9.00
2023-10-10T22:08:46.496Z,8.80
2023-10-10T22:11:15.951Z,8.00
2023-10-10T22:13:45.320Z,9.30
2023-10-10T22:16:13.894Z,8.30
2023-10-10T22:18:42.953Z,8.80
2023-10-10T22:21:11.761Z,8.90
2023-10-10T22:23:40.806Z,8.50
2023-10-10T22:26:10.617Z,8.20
2023-10-10T22:28:40.402Z,8.70
2023-10-10T22:31:15.837Z,9.50
2023-10-10T22:33:45.619Z,8.60
2023-10-10T22:36:17.933Z,8.80
2023-10-10T22:38:47.209Z,8.70
2023-10-10T22:41:16.536Z,8.60
2023-10-10T22:43:46.087Z,8.00
2023-10-10T22:48:44.676Z,7.60
2023-10-10T22:51:14.672Z,7.60
2023-10-10T22:53:47.522Z,7.70
2023-10-10T22:56:19.551Z,7.60
2023-10-10T22:58:48.652Z,7.70
2023-10-10T23:01:17.358Z,7.50
2023-10-10T23:03:49.288Z,7.10
2023-10-10T23:06:17.887Z,7.80
2023-10-10T23:08:47.401Z,7.60
2023-10-10T23:11:18.239Z,7.90
2023-10-10T23:13:47.582Z,7.20
2023-10-10T23:16:18.689Z,8.20
2023-10-10T23:18:47.617Z,7.30
2023-10-10T23:21:16.286Z,7.40
2023-10-10T23:23:45.013Z,8.00
2023-10-10T23:26:20.036Z,7.70
2023-10-10T23:28:50.091Z,8.60
2023-10-10T23:31:20.069Z,8.10
2023-10-10T23:33:48.640Z,8.50
2023-10-10T23:36:20.313Z,8.50
2023-10-10T23:38:49.724Z,8.40
2023-10-10T23:41:19.937Z,8.00
2023-10-10T23:43:48.550Z,8.70
2023-10-10T23:46:23.895Z,9.00
2023-10-10T23:48:56.221Z,8.20
2023-10-10T23:51:24.981Z,8.40
2023-10-10T23:53:53.578Z,8.60
2023-10-10T23:56:24.217Z,9.30
2023-10-10T23:58:53.406Z,8.20
